sensor_id;sensor_type;location;lat;lon;timestamp;pressure;altitude;pressure_sealevel;temperature;humidity
33075;BME280;19433;51.292;6.868;2023-02-17T00:00:10;100841.25;;;9.67;100.00
33075;BME280;19433;51.292;6.868;2023-02-17T00:02:36;100859.31;;;9.69;100.00
33075;BME280;19433;51.292;6.868;2023-02-17T00:05:02;100843.75;;;9.76;100.00
33075;BME280;19433;51.292;6.868;2023-02-17T00:07:30;100853.50;;;9.64;100.00
33075;BME280;19433;51.292;6.868;2023-02-17T00:09:58;100852.47;;;9.65;100.00
33075;BME280;19433;51.292;6.868;2023-02-17T00:12:24;100844.78;;;9.61;100.00
33075;BME280;19433;51.292;6.868;2023-02-17T00:14:49;100849.03;;;9.63;100.00
33075;BME280;19433;51.292;6.868;2023-02-17T00:17:14;100832.59;;;9.55;100.00
33075;BME280;19433;51.292;6.868;2023-02-17T00:19:40;100848.09;;;9.71;100.00
33075;BME280;19433;51.292;6.868;2023-02-17T00:22:05;100833.75;;;9.61;100.00
33075;BME280;19433;51.292;6.868;2023-02-17T00:24:32;100848.78;;;9.58;100.00
33075;BME280;19433;51.292;6.868;2023-02-17T00:26:57;100837.56;;;9.60;100.00
33075;BME280;19433;51.292;6.868;2023-02-17T00:29:23;100849.25;;;9.62;100.00
33075;BME280;19433;51.292;6.868;2023-02-17T00:31:48;100841.16;;;9.60;100.00
33075;BME280;19433;51.292;6.868;2023-02-17T00:34:15;100835.47;;;9.62;100.00
33075;BME280;19433;51.292;6.868;2023-02-17T00:36:40;100846.41;;;9.70;100.00
33075;BME280;19433;51.292;6.868;2023-02-17T00:39:06;100840.97;;;9.62;100.00
33075;BME280;19433;51.292;6.868;2023-02-17T00:41:31;100832.88;;;9.60;100.00
33075;BME280;19433;51.292;6.868;2023-02-17T00:43:58;100836.09;;;9.64;100.00
33075;BME280;19433;51.292;6.868;2023-02-17T00:46:23;100840.19;;;9.53;100.00
33075;BME280;19433;51.292;6.868;2023-02-17T00:48:49;100825.16;;;9.41;100.00
33075;BME280;19433;51.292;6.868;2023-02-17T00:51:15;100836.94;;;9.49;100.00
33075;BME280;19433;51.292;6.868;2023-02-17T00:53:41;100828.59;;;9.43;100.00
33075;BME280;19433;51.292;6.868;2023-02-17T00:56:07;100829.34;;;9.51;100.00
33075;BME280;19433;51.292;6.868;2023-02-17T00:58:33;100836.88;;;9.58;100.00
33075;BME280;19433;51.292;6.868;2023-02-17T01:00:59;100834.00;;;9.51;100.00
33075;BME280;19433;51.292;6.868;2023-02-17T01:03:25;100830.75;;;9.47;100.00
33075;BME280;19433;51.292;6.868;2023-02-17T01:05:51;100823.25;;;9.41;100.00
33075;BME280;19433;51.292;6.868;2023-02-17T01:08:18;100822.72;;;9.46;100.00
33075;BME280;19433;51.292;6.868;2023-02-17T01:10:47;100821.53;;;9.40;100.00
33075;BME280;19433;51.292;6.868;2023-02-17T01:13:14;100820.78;;;9.32;100.00
33075;BME280;19433;51.292;6.868;2023-02-17T01:15:44;100807.75;;;9.26;100.00
33075;BME280;19433;51.292;6.868;2023-02-17T01:18:10;100797.94;;;9.23;100.00
33075;BME280;19433;51.292;6.868;2023-02-17T01:20:37;100808.78;;;9.25;100.00
33075;BME280;19433;51.292;6.868;2023-02-17T01:23:04;100811.41;;;9.18;100.00
33075;BME280;19433;51.292;6.868;2023-02-17T01:25:29;100805.13;;;9.09;100.00
33075;BME280;19433;51.292;6.868;2023-02-17T01:27:55;100796.09;;;9.01;100.00
33075;BME280;19433;51.292;6.868;2023-02-17T01:30:20;100795.44;;;8.99;100.00
33075;BME280;19433;51.292;6.868;2023-02-17T01:32:45;100798.47;;;9.04;100.00
33075;BME280;19433;51.292;6.868;2023-02-17T01:35:11;100798.00;;;9.00;100.00
33075;BME280;19433;51.292;6.868;2023-02-17T01:37:36;100791.34;;;8.95;100.00
33075;BME280;19433;51.292;6.868;2023-02-17T01:40:01;100795.91;;;9.02;100.00
33075;BME280;19433;51.292;6.868;2023-02-17T01:42:27;100777.09;;;9.06;100.00
33075;BME280;19433;51.292;6.868;2023-02-17T01:48:01;100779.47;;;9.09;100.00
33075;BME280;19433;51.292;6.868;2023-02-17T01:50:31;100781.31;;;9.16;100.00
33075;BME280;19433;51.292;6.868;2023-02-17T01:52:59;100782.53;;;9.14;100.00
33075;BME280;19433;51.292;6.868;2023-02-17T01:55:26;100774.28;;;9.14;100.00
33075;BME280;19433;51.292;6.868;2023-02-17T01:57:54;100767.53;;;9.16;100.00
33075;BME280;19433;51.292;6.868;2023-02-17T02:00:23;100760.50;;;9.14;100.00
33075;BME280;19433;51.292;6.868;2023-02-17T02:02:50;100752.50;;;9.19;100.00
33075;BME280;19433;51.292;6.868;2023-02-17T02:05:16;100760.56;;;9.21;100.00
33075;BME280;19433;51.292;6.868;2023-02-17T02:07:43;100753.84;;;9.23;100.00
33075;BME280;19433;51.292;6.868;2023-02-17T02:10:13;100762.78;;;9.25;100.00
33075;BME280;19433;51.292;6.868;2023-02-17T02:12:40;100759.47;;;9.30;100.00
33075;BME280;19433;51.292;6.868;2023-02-17T02:20:36;100757.75;;;9.43;100.00
33075;BME280;19433;51.292;6.868;2023-02-17T02:34:46;100746.22;;;9.55;100.00
33075;BME280;19433;51.292;6.868;2023-02-17T02:37:34;100754.88;;;9.51;100.00
33075;BME280;19433;51.292;6.868;2023-02-17T02:40:03;100756.22;;;9.56;100.00
33075;BME280;19433;51.292;6.868;2023-02-17T02:42:30;100755.94;;;9.50;100.00
33075;BME280;19433;51.292;6.868;2023-02-17T02:44:56;100741.00;;;9.60;100.00
33075;BME280;19433;51.292;6.868;2023-02-17T02:47:41;100734.81;;;9.58;100.00
33075;BME280;19433;51.292;6.868;2023-02-17T02:50:09;100737.09;;;9.54;100.00
33075;BME280;19433;51.292;6.868;2023-02-17T02:53:06;100723.78;;;9.58;100.00
33075;BME280;19433;51.292;6.868;2023-02-17T02:58:29;100725.97;;;9.62;100.00
33075;BME280;19433;51.292;6.868;2023-02-17T03:01:10;100723.00;;;9.64;100.00
33075;BME280;19433;51.292;6.868;2023-02-17T03:03:48;100721.41;;;9.55;100.00
33075;BME280;19433;51.292;6.868;2023-02-17T03:08:56;100720.25;;;9.64;100.00
33075;BME280;19433;51.292;6.868;2023-02-17T03:11:25;100702.09;;;9.55;100.00
33075;BME280;19433;51.292;6.868;2023-02-17T03:16:26;100705.41;;;9.65;100.00
33075;BME280;19433;51.292;6.868;2023-02-17T03:18:51;100713.31;;;9.68;100.00
33075;BME280;19433;51.292;6.868;2023-02-17T03:21:16;100711.88;;;9.72;100.00
33075;BME280;19433;51.292;6.868;2023-02-17T03:23:42;100709.50;;;9.69;100.00
33075;BME280;19433;51.292;6.868;2023-02-17T03:26:07;100711.22;;;9.70;100.00
33075;BME280;19433;51.292;6.868;2023-02-17T03:28:32;100714.06;;;9.76;100.00
33075;BME280;19433;51.292;6.868;2023-02-17T03:30:57;100711.50;;;9.75;100.00
33075;BME280;19433;51.292;6.868;2023-02-17T03:33:23;100713.78;;;9.71;100.00
33075;BME280;19433;51.292;6.868;2023-02-17T03:35:48;100702.75;;;9.71;100.00
33075;BME280;19433;51.292;6.868;2023-02-17T03:38:13;100708.53;;;9.76;100.00
33075;BME280;19433;51.292;6.868;2023-02-17T03:40:39;100706.16;;;9.73;100.00
33075;BME280;19433;51.292;6.868;2023-02-17T03:43:04;100705.56;;;9.78;100.00
33075;BME280;19433;51.292;6.868;2023-02-17T03:45:30;100705.19;;;9.81;100.00
33075;BME280;19433;51.292;6.868;2023-02-17T03:47:55;100696.84;;;9.74;100.00
33075;BME280;19433;51.292;6.868;2023-02-17T03:50:20;100705.56;;;9.78;100.00
33075;BME280;19433;51.292;6.868;2023-02-17T03:52:45;100709.19;;;9.78;100.00
33075;BME280;19433;51.292;6.868;2023-02-17T03:55:11;100715.16;;;9.82;100.00
33075;BME280;19433;51.292;6.868;2023-02-17T03:57:36;100714.06;;;9.76;100.00
33075;BME280;19433;51.292;6.868;2023-02-17T04:00:02;100722.06;;;9.71;100.00
33075;BME280;19433;51.292;6.868;2023-02-17T04:02:28;100715.97;;;9.76;100.00
33075;BME280;19433;51.292;6.868;2023-02-17T04:04:53;100707.41;;;9.71;100.00
33075;BME280;19433;51.292;6.868;2023-02-17T04:07:19;100720.88;;;9.80;100.00
33075;BME280;19433;51.292;6.868;2023-02-17T04:09:44;100721.94;;;9.79;100.00
33075;BME280;19433;51.292;6.868;2023-02-17T04:12:09;100714.50;;;9.80;100.00
33075;BME280;19433;51.292;6.868;2023-02-17T04:14:34;100717.25;;;9.80;100.00
33075;BME280;19433;51.292;6.868;2023-02-17T04:17:00;100718.06;;;9.74;100.00
33075;BME280;19433;51.292;6.868;2023-02-17T04:19:25;100721.06;;;9.79;100.00
33075;BME280;19433;51.292;6.868;2023-02-17T04:21:50;100722.03;;;9.86;100.00
33075;BME280;19433;51.292;6.868;2023-02-17T04:24:16;100716.22;;;9.81;100.00
33075;BME280;19433;51.292;6.868;2023-02-17T04:26:41;100738.59;;;9.86;100.00
33075;BME280;19433;51.292;6.868;2023-02-17T04:29:06;100729.06;;;9.88;100.00
33075;BME280;19433;51.292;6.868;2023-02-17T04:31:31;100731.34;;;9.85;100.00
33075;BME280;19433;51.292;6.868;2023-02-17T04:33:57;100720.69;;;9.82;100.00
33075;BME280;19433;51.292;6.868;2023-02-17T04:36:22;100727.06;;;9.82;100.00
33075;BME280;19433;51.292;6.868;2023-02-17T04:38:47;100724.69;;;9.79;100.00
33075;BME280;19433;51.292;6.868;2023-02-17T04:41:13;100726.69;;;9.85;100.00
33075;BME280;19433;51.292;6.868;2023-02-17T04:43:38;100710.88;;;9.79;100.00
33075;BME280;19433;51.292;6.868;2023-02-17T04:46:04;100726.22;;;9.82;100.00
33075;BME280;19433;51.292;6.868;2023-02-17T04:48:29;100728.97;;;9.82;100.00
33075;BME280;19433;51.292;6.868;2023-02-17T04:50:54;100722.97;;;9.78;100.00
33075;BME280;19433;51.292;6.868;2023-02-17T04:53:20;100711.75;;;9.80;100.00
33075;BME280;19433;51.292;6.868;2023-02-17T04:55:50;100718.03;;;9.88;100.00
33075;BME280;19433;51.292;6.868;2023-02-17T04:58:16;100704.91;;;9.91;100.00
33075;BME280;19433;51.292;6.868;2023-02-17T05:00:42;100696.06;;;9.80;100.00
33075;BME280;19433;51.292;6.868;2023-02-17T05:03:07;100708.69;;;9.90;100.00
33075;BME280;19433;51.292;6.868;2023-02-17T05:05:32;100722.69;;;9.88;100.00
33075;BME280;19433;51.292;6.868;2023-02-17T05:07:58;100716.78;;;9.91;100.00
33075;BME280;19433;51.292;6.868;2023-02-17T05:10:24;100710.22;;;9.92;100.00
33075;BME280;19433;51.292;6.868;2023-02-17T05:12:49;100708.59;;;9.83;100.00
33075;BME280;19433;51.292;6.868;2023-02-17T05:15:14;100717.22;;;9.95;100.00
33075;BME280;19433;51.292;6.868;2023-02-17T05:17:40;100701.00;;;9.85;100.00
33075;BME280;19433;51.292;6.868;2023-02-17T05:20:05;100716.31;;;9.87;100.00
33075;BME280;19433;51.292;6.868;2023-02-17T05:22:31;100705.19;;;9.81;100.00
33075;BME280;19433;51.292;6.868;2023-02-17T05:24:56;100706.31;;;9.86;100.00
33075;BME280;19433;51.292;6.868;2023-02-17T05:27:23;100703.56;;;9.86;100.00
33075;BME280;19433;51.292;6.868;2023-02-17T05:29:49;100698.50;;;9.90;100.00
33075;BME280;19433;51.292;6.868;2023-02-17T05:32:15;100697.00;;;9.87;100.00
33075;BME280;19433;51.292;6.868;2023-02-17T05:34:41;100706.38;;;9.93;100.00
33075;BME280;19433;51.292;6.868;2023-02-17T05:37:06;100708.59;;;9.83;100.00
33075;BME280;19433;51.292;6.868;2023-02-17T05:39:31;100698.72;;;9.88;100.00
33075;BME280;19433;51.292;6.868;2023-02-17T05:41:56;100702.91;;;9.84;100.00
33075;BME280;19433;51.292;6.868;2023-02-17T05:44:22;100698.63;;;9.82;100.00
33075;BME280;19433;51.292;6.868;2023-02-17T05:46:47;100690.72;;;9.79;100.00
33075;BME280;19433;51.292;6.868;2023-02-17T05:49:12;100694.81;;;9.83;100.00
33075;BME280;19433;51.292;6.868;2023-02-17T05:51:37;100694.22;;;9.87;100.00
33075;BME280;19433;51.292;6.868;2023-02-17T05:54:03;100697.19;;;9.86;100.00
33075;BME280;19433;51.292;6.868;2023-02-17T05:56:28;100696.34;;;9.85;100.00
33075;BME280;19433;51.292;6.868;2023-02-17T05:58:54;100694.34;;;9.79;100.00
33075;BME280;19433;51.292;6.868;2023-02-17T06:01:19;100701.00;;;9.85;100.00
33075;BME280;19433;51.292;6.868;2023-02-17T06:03:44;100701.72;;;9.94;100.00
33075;BME280;19433;51.292;6.868;2023-02-17T06:06:10;100694.63;;;9.84;100.00
33075;BME280;19433;51.292;6.868;2023-02-17T06:08:35;100708.50;;;9.91;100.00
33075;BME280;19433;51.292;6.868;2023-02-17T06:11:01;100715.25;;;9.88;100.00
33075;BME280;19433;51.292;6.868;2023-02-17T06:13:27;100692.16;;;9.90;100.00
33075;BME280;19433;51.292;6.868;2023-02-17T06:15:52;100692.72;;;9.85;100.00
33075;BME280;19433;51.292;6.868;2023-02-17T06:18:17;100681.09;;;9.90;100.00
33075;BME280;19433;51.292;6.868;2023-02-17T06:20:43;100686.44;;;9.91;100.00
33075;BME280;19433;51.292;6.868;2023-02-17T06:23:08;100677.88;;;9.86;100.00
33075;BME280;19433;51.292;6.868;2023-02-17T06:25:34;100685.16;;;9.94;100.00
33075;BME280;19433;51.292;6.868;2023-02-17T06:27:59;100685.88;;;9.81;100.00
33075;BME280;19433;51.292;6.868;2023-02-17T06:30:25;100699.56;;;9.89;100.00
33075;BME280;19433;51.292;6.868;2023-02-17T06:32:50;100690.25;;;9.90;100.00
33075;BME280;19433;51.292;6.868;2023-02-17T06:35:15;100692.38;;;9.95;100.00
33075;BME280;19433;51.292;6.868;2023-02-17T06:37:41;100699.75;;;9.87;100.00
33075;BME280;19433;51.292;6.868;2023-02-17T06:40:07;100694.91;;;9.90;100.00
33075;BME280;19433;51.292;6.868;2023-02-17T06:42:32;100709.38;;;9.92;100.00
33075;BME280;19433;51.292;6.868;2023-02-17T06:44:57;100697.84;;;9.88;100.00
33075;BME280;19433;51.292;6.868;2023-02-17T06:47:25;100693.34;;;10.02;100.00
33075;BME280;19433;51.292;6.868;2023-02-17T06:49:50;100694.56;;;9.99;100.00
33075;BME280;19433;51.292;6.868;2023-02-17T06:52:15;100705.81;;;9.98;100.00
33075;BME280;19433;51.292;6.868;2023-02-17T06:54:41;100704.09;;;9.97;100.00
33075;BME280;19433;51.292;6.868;2023-02-17T06:57:06;100685.81;;;9.96;100.00
33075;BME280;19433;51.292;6.868;2023-02-17T06:59:31;100699.19;;;9.92;100.00
33075;BME280;19433;51.292;6.868;2023-02-17T07:01:57;100696.06;;;9.80;100.00
33075;BME280;19433;51.292;6.868;2023-02-17T07:04:23;100711.50;;;9.75;100.00
33075;BME280;19433;51.292;6.868;2023-02-17T07:06:48;100708.44;;;9.70;100.00
33075;BME280;19433;51.292;6.868;2023-02-17T07:09:13;100700.47;;;9.75;100.00
33075;BME280;19433;51.292;6.868;2023-02-17T07:11:39;100686.09;;;9.65;100.00
33075;BME280;19433;51.292;6.868;2023-02-17T07:14:04;100690.84;;;9.71;100.00
33075;BME280;19433;51.292;6.868;2023-02-17T07:16:29;100684.78;;;9.61;100.00
33075;BME280;19433;51.292;6.868;2023-02-17T07:18:55;100689.91;;;9.64;100.00
33075;BME280;19433;51.292;6.868;2023-02-17T07:21:20;100703.22;;;9.75;100.00
33075;BME280;19433;51.292;6.868;2023-02-17T07:23:45;100695.19;;;9.80;100.00
33075;BME280;19433;51.292;6.868;2023-02-17T07:26:12;100706.03;;;9.81;100.00
33075;BME280;19433;51.292;6.868;2023-02-17T07:28:38;100706.13;;;9.88;100.00
33075;BME280;19433;51.292;6.868;2023-02-17T07:31:12;100707.56;;;9.84;100.00
33075;BME280;19433;51.292;6.868;2023-02-17T07:33:38;100705.09;;;9.89;100.00
33075;BME280;19433;51.292;6.868;2023-02-17T07:36:08;100706.19;;;9.95;100.00
33075;BME280;19433;51.292;6.868;2023-02-17T07:38:35;100714.22;;;9.90;100.00
33075;BME280;19433;51.292;6.868;2023-02-17T07:41:09;100709.81;;;9.95;100.00
33075;BME280;19433;51.292;6.868;2023-02-17T07:43:35;100717.97;;;10.03;100.00
33075;BME280;19433;51.292;6.868;2023-02-17T07:46:00;100710.94;;;10.01;100.00
33075;BME280;19433;51.292;6.868;2023-02-17T07:48:26;100703.19;;;10.11;100.00
33075;BME280;19433;51.292;6.868;2023-02-17T07:50:51;100710.81;;;10.09;100.00
33075;BME280;19433;51.292;6.868;2023-02-17T07:53:16;100707.09;;;10.16;100.00
33075;BME280;19433;51.292;6.868;2023-02-17T07:55:41;100704.03;;;10.11;100.00
33075;BME280;19433;51.292;6.868;2023-02-17T07:58:07;100706.41;;;10.14;100.00
33075;BME280;19433;51.292;6.868;2023-02-17T08:00:32;100713.84;;;10.14;100.00
33075;BME280;19433;51.292;6.868;2023-02-17T08:02:58;100711.75;;;10.16;100.00
33075;BME280;19433;51.292;6.868;2023-02-17T08:05:23;100700.34;;;10.19;100.00
33075;BME280;19433;51.292;6.868;2023-02-17T08:07:48;100699.31;;;10.20;100.00
33075;BME280;19433;51.292;6.868;2023-02-17T08:10:33;100703.44;;;10.31;100.00
33075;BME280;19433;51.292;6.868;2023-02-17T08:13:17;100714.00;;;10.27;100.00
33075;BME280;19433;51.292;6.868;2023-02-17T08:15:45;100712.72;;;10.23;100.00
33075;BME280;19433;51.292;6.868;2023-02-17T08:18:11;100717.44;;;10.29;100.00
33075;BME280;19433;51.292;6.868;2023-02-17T08:20:37;100718.69;;;10.27;100.00
33075;BME280;19433;51.292;6.868;2023-02-17T08:23:02;100711.06;;;10.29;100.00
33075;BME280;19433;51.292;6.868;2023-02-17T08:25:31;100724.28;;;10.33;100.00
33075;BME280;19433;51.292;6.868;2023-02-17T08:27:57;100713.50;;;10.38;100.00
33075;BME280;19433;51.292;6.868;2023-02-17T08:30:23;100712.50;;;10.46;100.00
33075;BME280;19433;51.292;6.868;2023-02-17T08:32:48;100717.97;;;10.39;100.00
33075;BME280;19433;51.292;6.868;2023-02-17T08:35:13;100714.03;;;10.48;100.00
33075;BME280;19433;51.292;6.868;2023-02-17T08:37:39;100702.59;;;10.51;100.00
33075;BME280;19433;51.292;6.868;2023-02-17T08:40:04;100705.16;;;10.53;100.00
33075;BME280;19433;51.292;6.868;2023-02-17T08:42:31;100710.06;;;10.57;100.00
33075;BME280;19433;51.292;6.868;2023-02-17T08:44:56;100689.75;;;10.65;100.00
33075;BME280;19433;51.292;6.868;2023-02-17T08:47:21;100696.13;;;10.66;100.00
33075;BME280;19433;51.292;6.868;2023-02-17T08:49:47;100702.88;;;10.84;100.00
33075;BME280;19433;51.292;6.868;2023-02-17T08:52:12;100703.50;;;10.86;100.00
33075;BME280;19433;51.292;6.868;2023-02-17T08:54:37;100688.13;;;10.77;100.00
33075;BME280;19433;51.292;6.868;2023-02-17T08:57:03;100685.09;;;10.72;100.00
33075;BME280;19433;51.292;6.868;2023-02-17T08:59:29;100703.50;;;10.86;100.00
33075;BME280;19433;51.292;6.868;2023-02-17T09:01:54;100692.63;;;10.85;100.00
33075;BME280;19433;51.292;6.868;2023-02-17T09:04:20;100704.78;;;10.84;100.00
33075;BME280;19433;51.292;6.868;2023-02-17T09:06:48;100695.47;;;10.91;100.00
33075;BME280;19433;51.292;6.868;2023-02-17T09:09:16;100697.19;;;10.92;100.00
33075;BME280;19433;51.292;6.868;2023-02-17T09:11:42;100698.97;;;11.07;100.00
33075;BME280;19433;51.292;6.868;2023-02-17T09:14:07;100707.34;;;11.13;100.00
33075;BME280;19433;51.292;6.868;2023-02-17T09:16:33;100711.25;;;11.25;100.00
33075;BME280;19433;51.292;6.868;2023-02-17T09:18:58;100700.13;;;11.19;100.00
33075;BME280;19433;51.292;6.868;2023-02-17T09:21:24;100708.94;;;11.36;100.00
33075;BME280;19433;51.292;6.868;2023-02-17T09:23:49;100702.09;;;11.32;100.00
33075;BME280;19433;51.292;6.868;2023-02-17T09:26:16;100727.97;;;11.45;100.00
33075;BME280;19433;51.292;6.868;2023-02-17T09:28:42;100720.38;;;11.60;100.00
33075;BME280;19433;51.292;6.868;2023-02-17T09:33:38;100710.19;;;11.68;100.00
33075;BME280;19433;51.292;6.868;2023-02-17T09:36:05;100713.00;;;11.74;100.00
33075;BME280;19433;51.292;6.868;2023-02-17T09:38:31;100711.16;;;11.88;100.00
33075;BME280;19433;51.292;6.868;2023-02-17T09:43:44;100721.19;;;11.89;100.00
33075;BME280;19433;51.292;6.868;2023-02-17T09:46:22;100706.06;;;11.91;100.00
33075;BME280;19433;51.292;6.868;2023-02-17T09:48:51;100718.28;;;12.23;99.21
33075;BME280;19433;51.292;6.868;2023-02-17T09:51:25;100728.47;;;12.03;99.97
33075;BME280;19433;51.292;6.868;2023-02-17T09:54:09;100725.28;;;12.06;100.00
33075;BME280;19433;51.292;6.868;2023-02-17T09:56:41;100722.38;;;12.34;99.44
33075;BME280;19433;51.292;6.868;2023-02-17T09:59:31;100737.50;;;12.31;98.70
33075;BME280;19433;51.292;6.868;2023-02-17T10:01:58;100736.03;;;12.36;98.19
33075;BME280;19433;51.292;6.868;2023-02-17T10:04:30;100741.94;;;12.26;98.80
33075;BME280;19433;51.292;6.868;2023-02-17T10:09:47;100744.53;;;12.34;99.16
33075;BME280;19433;51.292;6.868;2023-02-17T10:12:29;100743.22;;;12.23;99.06
33075;BME280;19433;51.292;6.868;2023-02-17T10:15:16;100735.75;;;12.17;99.75
33075;BME280;19433;51.292;6.868;2023-02-17T10:17:52;100734.69;;;12.18;99.83
33075;BME280;19433;51.292;6.868;2023-02-17T10:20:23;100731.72;;;12.26;99.32
33075;BME280;19433;51.292;6.868;2023-02-17T10:23:03;100737.09;;;12.41;98.66
33075;BME280;19433;51.292;6.868;2023-02-17T10:25:48;100728.59;;;12.76;96.14
33075;BME280;19433;51.292;6.868;2023-02-17T10:28:49;100739.69;;;12.76;96.51
33075;BME280;19433;51.292;6.868;2023-02-17T10:31:27;100731.16;;;13.03;95.18
33075;BME280;19433;51.292;6.868;2023-02-17T10:34:01;100733.06;;;13.03;94.44
33075;BME280;19433;51.292;6.868;2023-02-17T10:36:36;100746.75;;;12.91;94.94
33075;BME280;19433;51.292;6.868;2023-02-17T10:39:54;100746.50;;;12.73;95.85
33075;BME280;19433;51.292;6.868;2023-02-17T10:41:55;100752.25;;;12.52;97.26
33075;BME280;19433;51.292;6.868;2023-02-17T10:44:22;100752.03;;;12.47;97.84
33075;BME280;19433;51.292;6.868;2023-02-17T10:46:50;100754.56;;;12.42;98.24
33075;BME280;19433;51.292;6.868;2023-02-17T10:49:31;100759.00;;;12.29;99.04
33075;BME280;19433;51.292;6.868;2023-02-17T10:52:09;100728.34;;;12.31;99.13
33075;BME280;19433;51.292;6.868;2023-02-17T10:54:43;100722.16;;;12.29;99.13
33075;BME280;19433;51.292;6.868;2023-02-17T10:57:12;100726.66;;;12.43;98.44
33075;BME280;19433;51.292;6.868;2023-02-17T10:59:42;100723.25;;;12.48;98.06
33075;BME280;19433;51.292;6.868;2023-02-17T11:02:18;100737.34;;;12.66;97.18
33075;BME280;19433;51.292;6.868;2023-02-17T11:04:46;100748.22;;;12.67;97.08
33075;BME280;19433;51.292;6.868;2023-02-17T11:07:14;100746.94;;;12.70;96.98
33075;BME280;19433;51.292;6.868;2023-02-17T11:09:46;100740.78;;;12.81;96.28
33075;BME280;19433;51.292;6.868;2023-02-17T11:12:17;100734.16;;;12.89;95.71
33075;BME280;19433;51.292;6.868;2023-02-17T11:14:48;100742.69;;;12.81;95.95
33075;BME280;19433;51.292;6.868;2023-02-17T11:17:25;100737.34;;;12.92;96.05
33075;BME280;19433;51.292;6.868;2023-02-17T11:19:55;100723.06;;;12.95;94.88
33075;BME280;19433;51.292;6.868;2023-02-17T11:25:03;100707.50;;;12.94;95.04
33075;BME280;19433;51.292;6.868;2023-02-17T11:27:29;100704.72;;;12.94;95.02
33075;BME280;19433;51.292;6.868;2023-02-17T11:30:06;100701.50;;;13.04;94.45
33075;BME280;19433;51.292;6.868;2023-02-17T11:32:31;100691.50;;;12.96;94.30
33075;BME280;19433;51.292;6.868;2023-02-17T11:34:58;100691.25;;;13.04;93.45
33075;BME280;19433;51.292;6.868;2023-02-17T11:37:25;100696.19;;;13.29;92.32
33075;BME280;19433;51.292;6.868;2023-02-17T11:39:53;100709.09;;;13.61;90.67
33075;BME280;19433;51.292;6.868;2023-02-17T11:42:23;100705.53;;;13.41;90.86
33075;BME280;19433;51.292;6.868;2023-02-17T11:44:49;100687.00;;;13.28;91.16
33075;BME280;19433;51.292;6.868;2023-02-17T11:47:34;100697.25;;;13.28;91.58
33075;BME280;19433;51.292;6.868;2023-02-17T11:50:29;100708.75;;;13.31;91.22
33075;BME280;19433;51.292;6.868;2023-02-17T11:53:13;100693.50;;;13.60;89.93
33075;BME280;19433;51.292;6.868;2023-02-17T11:56:12;100703.91;;;13.78;88.32
33075;BME280;19433;51.292;6.868;2023-02-17T12:09:25;100674.84;;;13.10;90.45
33075;BME280;19433;51.292;6.868;2023-02-17T12:12:00;100675.69;;;13.10;90.96
33075;BME280;19433;51.292;6.868;2023-02-17T12:14:49;100657.56;;;13.08;90.82
33075;BME280;19433;51.292;6.868;2023-02-17T12:25:26;100680.56;;;13.41;89.77
33075;BME280;19433;51.292;6.868;2023-02-17T12:28:43;100677.91;;;13.66;88.95
33075;BME280;19433;51.292;6.868;2023-02-17T12:36:40;100672.38;;;14.04;87.25
33075;BME280;19433;51.292;6.868;2023-02-17T12:39:25;100670.34;;;13.86;87.95
33075;BME280;19433;51.292;6.868;2023-02-17T12:44:27;100668.34;;;14.00;88.47
33075;BME280;19433;51.292;6.868;2023-02-17T12:46:56;100657.88;;;14.02;87.76
33075;BME280;19433;51.292;6.868;2023-02-17T12:52:07;100655.53;;;14.30;86.16
33075;BME280;19433;51.292;6.868;2023-02-17T12:54:39;100647.69;;;14.21;86.35
33075;BME280;19433;51.292;6.868;2023-02-17T12:59:40;100656.53;;;14.11;87.82
33075;BME280;19433;51.292;6.868;2023-02-17T13:02:12;100656.09;;;14.07;87.72
33075;BME280;19433;51.292;6.868;2023-02-17T13:04:38;100668.16;;;13.95;88.52
33075;BME280;19433;51.292;6.868;2023-02-17T13:09:40;100662.56;;;14.01;88.30
33075;BME280;19433;51.292;6.868;2023-02-17T13:14:48;100665.56;;;14.00;88.00
33075;BME280;19433;51.292;6.868;2023-02-17T13:17:37;100674.09;;;14.05;88.07
33075;BME280;19433;51.292;6.868;2023-02-17T13:20:23;100689.16;;;14.22;86.66
33075;BME280;19433;51.292;6.868;2023-02-17T13:22:48;100691.84;;;14.04;87.59
33075;BME280;19433;51.292;6.868;2023-02-17T13:25:30;100674.56;;;13.95;88.11
33075;BME280;19433;51.292;6.868;2023-02-17T13:27:58;100682.53;;;13.85;88.37
33075;BME280;19433;51.292;6.868;2023-02-17T13:30:26;100682.31;;;13.87;88.24
33075;BME280;19433;51.292;6.868;2023-02-17T13:35:44;100688.13;;;13.72;88.58
33075;BME280;19433;51.292;6.868;2023-02-17T13:38:10;100673.56;;;13.77;88.51
33075;BME280;19433;51.292;6.868;2023-02-17T13:40:37;100662.22;;;13.85;88.61
33075;BME280;19433;51.292;6.868;2023-02-17T13:43:18;100679.75;;;13.79;88.63
33075;BME280;19433;51.292;6.868;2023-02-17T13:45:48;100684.94;;;13.68;89.20
33075;BME280;19433;51.292;6.868;2023-02-17T13:50:55;100680.88;;;13.71;89.35
33075;BME280;19433;51.292;6.868;2023-02-17T13:53:24;100687.94;;;13.67;89.59
33075;BME280;19433;51.292;6.868;2023-02-17T13:55:50;100693.91;;;13.70;89.36
33075;BME280;19433;51.292;6.868;2023-02-17T13:58:25;100691.78;;;13.66;89.22
33075;BME280;19433;51.292;6.868;2023-02-17T14:00:52;100680.88;;;13.71;89.40
33075;BME280;19433;51.292;6.868;2023-02-17T14:03:27;100700.53;;;13.69;89.62
33075;BME280;19433;51.292;6.868;2023-02-17T14:05:55;100698.59;;;13.70;89.51
33075;BME280;19433;51.292;6.868;2023-02-17T14:08:36;100715.22;;;13.77;89.27
33075;BME280;19433;51.292;6.868;2023-02-17T14:11:11;100718.06;;;13.63;89.43
33075;BME280;19433;51.292;6.868;2023-02-17T14:13:39;100731.75;;;13.58;90.02
33075;BME280;19433;51.292;6.868;2023-02-17T14:16:05;100738.78;;;13.61;89.38